sensor_id;sensor_type;location;lat;lon;timestamp;temperature;humidity
1614;DHT22;800;48.824;9.346;2023-06-14T00:01:19;24.90;33.10
1614;DHT22;800;48.824;9.346;2023-06-14T00:03:47;25.30;32.80
1614;DHT22;800;48.824;9.346;2023-06-14T00:06:14;25.50;32.20
1614;DHT22;800;48.824;9.346;2023-06-14T00:08:39;25.70;31.60
1614;DHT22;800;48.824;9.346;2023-06-14T00:11:06;25.70;31.40
1614;DHT22;800;48.824;9.346;2023-06-14T00:13:32;25.80;31.40
1614;DHT22;800;48.824;9.346;2023-06-14T00:15:58;25.90;31.30
1614;DHT22;800;48.824;9.346;2023-06-14T00:18:24;25.80;31.20
1614;DHT22;800;48.824;9.346;2023-06-14T00:20:50;25.80;31.70
1614;DHT22;800;48.824;9.346;2023-06-14T00:23:17;25.70;31.20
1614;DHT22;800;48.824;9.346;2023-06-14T00:25:42;25.50;31.40
1614;DHT22;800;48.824;9.346;2023-06-14T00:28:08;25.40;31.80
1614;DHT22;800;48.824;9.346;2023-06-14T00:30:33;25.10;32.30
1614;DHT22;800;48.824;9.346;2023-06-14T00:32:59;24.90;32.80
1614;DHT22;800;48.824;9.346;2023-06-14T00:35:25;24.90;32.80
1614;DHT22;800;48.824;9.346;2023-06-14T00:37:51;24.80;33.10
1614;DHT22;800;48.824;9.346;2023-06-14T00:40:16;24.80;33.20
1614;DHT22;800;48.824;9.346;2023-06-14T00:42:42;24.70;33.10
1614;DHT22;800;48.824;9.346;2023-06-14T00:45:08;24.70;33.30
1614;DHT22;800;48.824;9.346;2023-06-14T00:47:35;24.60;33.20
1614;DHT22;800;48.824;9.346;2023-06-14T00:50:03;24.50;33.50
1614;DHT22;800;48.824;9.346;2023-06-14T00:52:31;24.40;34.00
1614;DHT22;800;48.824;9.346;2023-06-14T00:54:57;24.30;33.80
1614;DHT22;800;48.824;9.346;2023-06-14T00:57:23;24.40;33.70
1614;DHT22;800;48.824;9.346;2023-06-14T00:59:49;24.30;33.60
1614;DHT22;800;48.824;9.346;2023-06-14T01:02:16;24.20;33.90
1614;DHT22;800;48.824;9.346;2023-06-14T01:04:44;24.00;34.00
1614;DHT22;800;48.824;9.346;2023-06-14T01:15:31;23.60;35.00
1614;DHT22;800;48.824;9.346;2023-06-14T01:17:57;23.50;35.40
1614;DHT22;800;48.824;9.346;2023-06-14T01:20:29;23.60;35.80
1614;DHT22;800;48.824;9.346;2023-06-14T01:22:56;23.70;35.80
1614;DHT22;800;48.824;9.346;2023-06-14T01:25:22;23.90;35.30
1614;DHT22;800;48.824;9.346;2023-06-14T01:28:03;24.00;34.90
1614;DHT22;800;48.824;9.346;2023-06-14T01:30:36;24.00;34.30
1614;DHT22;800;48.824;9.346;2023-06-14T01:33:03;24.00;35.00
1614;DHT22;800;48.824;9.346;2023-06-14T01:35:30;24.10;35.00
1614;DHT22;800;48.824;9.346;2023-06-14T01:37:56;24.00;34.20
1614;DHT22;800;48.824;9.346;2023-06-14T01:40:22;24.10;34.40
1614;DHT22;800;48.824;9.346;2023-06-14T01:42:49;24.10;34.90
1614;DHT22;800;48.824;9.346;2023-06-14T01:45:15;24.10;34.70
1614;DHT22;800;48.824;9.346;2023-06-14T01:47:41;24.20;34.00
1614;DHT22;800;48.824;9.346;2023-06-14T01:50:09;24.20;34.50
1614;DHT22;800;48.824;9.346;2023-06-14T01:52:34;24.30;34.30
1614;DHT22;800;48.824;9.346;2023-06-14T01:55:00;24.30;34.40
1614;DHT22;800;48.824;9.346;2023-06-14T01:57:28;24.40;34.30
1614;DHT22;800;48.824;9.346;2023-06-14T01:59:54;24.50;34.60
1614;DHT22;800;48.824;9.346;2023-06-14T02:02:20;24.50;33.70
1614;DHT22;800;48.824;9.346;2023-06-14T02:04:45;24.50;33.50
1614;DHT22;800;48.824;9.346;2023-06-14T02:07:13;24.50;34.00
1614;DHT22;800;48.824;9.346;2023-06-14T02:09:38;24.50;34.10
1614;DHT22;800;48.824;9.346;2023-06-14T02:12:04;24.50;33.70
1614;DHT22;800;48.824;9.346;2023-06-14T02:14:30;24.50;34.00
1614;DHT22;800;48.824;9.346;2023-06-14T02:16:56;24.50;33.60
1614;DHT22;800;48.824;9.346;2023-06-14T02:19:22;24.50;34.10
1614;DHT22;800;48.824;9.346;2023-06-14T02:21:47;24.40;33.70
1614;DHT22;800;48.824;9.346;2023-06-14T02:24:13;24.30;33.70
1614;DHT22;800;48.824;9.346;2023-06-14T02:26:39;24.10;34.50
1614;DHT22;800;48.824;9.346;2023-06-14T02:29:07;23.90;35.20
1614;DHT22;800;48.824;9.346;2023-06-14T02:31:35;23.70;36.00
1614;DHT22;800;48.824;9.346;2023-06-14T02:34:01;23.50;36.50
1614;DHT22;800;48.824;9.346;2023-06-14T02:36:26;23.40;36.80
1614;DHT22;800;48.824;9.346;2023-06-14T02:38:54;23.20;36.90
1614;DHT22;800;48.824;9.346;2023-06-14T02:41:23;23.10;37.10
1614;DHT22;800;48.824;9.346;2023-06-14T02:43:48;23.00;37.20
1614;DHT22;800;48.824;9.346;2023-06-14T02:46:14;23.00;37.20
1614;DHT22;800;48.824;9.346;2023-06-14T02:48:40;22.90;36.90
1614;DHT22;800;48.824;9.346;2023-06-14T02:51:05;22.90;37.10
1614;DHT22;800;48.824;9.346;2023-06-14T02:53:31;22.90;37.30
1614;DHT22;800;48.824;9.346;2023-06-14T02:55:57;22.90;37.10
1614;DHT22;800;48.824;9.346;2023-06-14T02:58:22;22.90;37.00
1614;DHT22;800;48.824;9.346;2023-06-14T03:00:50;22.90;36.90
1614;DHT22;800;48.824;9.346;2023-06-14T03:03:17;22.90;36.80
1614;DHT22;800;48.824;9.346;2023-06-14T03:05:46;22.70;36.70
1614;DHT22;800;48.824;9.346;2023-06-14T03:08:13;22.50;36.90
1614;DHT22;800;48.824;9.346;2023-06-14T03:10:49;22.30;37.50
1614;DHT22;800;48.824;9.346;2023-06-14T03:13:15;22.30;37.60
1614;DHT22;800;48.824;9.346;2023-06-14T03:15:47;22.30;37.70
1614;DHT22;800;48.824;9.346;2023-06-14T03:18:16;22.30;38.10
1614;DHT22;800;48.824;9.346;2023-06-14T03:20:41;22.40;37.70
1614;DHT22;800;48.824;9.346;2023-06-14T03:23:08;22.40;37.60
1614;DHT22;800;48.824;9.346;2023-06-14T03:25:34;22.40;37.30
1614;DHT22;800;48.824;9.346;2023-06-14T03:28:04;22.50;37.40
1614;DHT22;800;48.824;9.346;2023-06-14T03:30:30;22.50;37.50
1614;DHT22;800;48.824;9.346;2023-06-14T03:32:56;22.40;37.40
1614;DHT22;800;48.824;9.346;2023-06-14T03:35:22;22.40;37.40
1614;DHT22;800;48.824;9.346;2023-06-14T03:37:49;22.30;37.50
1614;DHT22;800;48.824;9.346;2023-06-14T03:40:17;22.30;37.60
1614;DHT22;800;48.824;9.346;2023-06-14T03:42:43;22.30;37.80
1614;DHT22;800;48.824;9.346;2023-06-14T03:45:09;22.20;37.80
1614;DHT22;800;48.824;9.346;2023-06-14T03:47:35;22.10;38.20
1614;DHT22;800;48.824;9.346;2023-06-14T03:50:02;22.00;38.60
1614;DHT22;800;48.824;9.346;2023-06-14T03:52:27;21.90;38.60
1614;DHT22;800;48.824;9.346;2023-06-14T03:54:53;21.90;38.70
1614;DHT22;800;48.824;9.346;2023-06-14T03:57:19;21.80;38.90
1614;DHT22;800;48.824;9.346;2023-06-14T03:59:45;21.70;38.90
1614;DHT22;800;48.824;9.346;2023-06-14T04:02:11;21.60;39.10
1614;DHT22;800;48.824;9.346;2023-06-14T04:04:37;21.60;39.20
1614;DHT22;800;48.824;9.346;2023-06-14T04:07:03;21.70;39.30
1614;DHT22;800;48.824;9.346;2023-06-14T04:09:32;21.60;39.20
1614;DHT22;800;48.824;9.346;2023-06-14T04:11:57;21.70;39.10
1614;DHT22;800;48.824;9.346;2023-06-14T04:14:23;21.80;39.00
1614;DHT22;800;48.824;9.346;2023-06-14T04:16:49;21.80;39.00
1614;DHT22;800;48.824;9.346;2023-06-14T04:19:15;21.90;39.00
1614;DHT22;800;48.824;9.346;2023-06-14T04:21:41;22.00;38.90
1614;DHT22;800;48.824;9.346;2023-06-14T04:24:07;22.00;38.90
1614;DHT22;800;48.824;9.346;2023-06-14T04:26:38;22.00;38.80
1614;DHT22;800;48.824;9.346;2023-06-14T04:29:04;22.00;38.90
1614;DHT22;800;48.824;9.346;2023-06-14T04:31:31;22.00;39.10
1614;DHT22;800;48.824;9.346;2023-06-14T04:33:59;21.90;39.50
1614;DHT22;800;48.824;9.346;2023-06-14T04:36:25;21.70;39.40
1614;DHT22;800;48.824;9.346;2023-06-14T04:38:52;21.60;39.40
1614;DHT22;800;48.824;9.346;2023-06-14T04:41:22;21.50;39.80
1614;DHT22;800;48.824;9.346;2023-06-14T04:43:49;21.50;39.90
1614;DHT22;800;48.824;9.346;2023-06-14T04:46:15;21.60;40.30
1614;DHT22;800;48.824;9.346;2023-06-14T04:48:41;21.70;40.00
1614;DHT22;800;48.824;9.346;2023-06-14T04:51:10;21.60;40.00
1614;DHT22;800;48.824;9.346;2023-06-14T04:53:37;21.60;39.90
1614;DHT22;800;48.824;9.346;2023-06-14T04:56:03;21.60;40.00
1614;DHT22;800;48.824;9.346;2023-06-14T04:58:29;21.70;39.90
1614;DHT22;800;48.824;9.346;2023-06-14T05:00:55;21.80;39.70
1614;DHT22;800;48.824;9.346;2023-06-14T05:03:22;21.80;39.80
1614;DHT22;800;48.824;9.346;2023-06-14T05:05:49;21.90;39.80
1614;DHT22;800;48.824;9.346;2023-06-14T05:08:16;21.90;39.90
1614;DHT22;800;48.824;9.346;2023-06-14T05:10:41;22.10;39.60
1614;DHT22;800;48.824;9.346;2023-06-14T05:13:07;22.20;39.50
1614;DHT22;800;48.824;9.346;2023-06-14T05:15:33;22.30;38.90
1614;DHT22;800;48.824;9.346;2023-06-14T05:17:59;22.40;38.60
1614;DHT22;800;48.824;9.346;2023-06-14T05:20:25;22.40;38.70
1614;DHT22;800;48.824;9.346;2023-06-14T05:22:53;22.20;38.10
1614;DHT22;800;48.824;9.346;2023-06-14T05:25:22;22.10;38.60
1614;DHT22;800;48.824;9.346;2023-06-14T05:27:47;22.10;38.60
1614;DHT22;800;48.824;9.346;2023-06-14T05:30:15;22.20;38.40
1614;DHT22;800;48.824;9.346;2023-06-14T05:32:41;22.30;38.80
1614;DHT22;800;48.824;9.346;2023-06-14T05:35:07;22.40;39.20
1614;DHT22;800;48.824;9.346;2023-06-14T05:37:33;22.60;38.50
1614;DHT22;800;48.824;9.346;2023-06-14T05:39:59;22.70;38.30
1614;DHT22;800;48.824;9.346;2023-06-14T05:42:24;22.80;38.40
1614;DHT22;800;48.824;9.346;2023-06-14T05:44:50;23.00;38.40
1614;DHT22;800;48.824;9.346;2023-06-14T05:47:16;23.10;38.30
1614;DHT22;800;48.824;9.346;2023-06-14T05:49:41;23.20;38.00
1614;DHT22;800;48.824;9.346;2023-06-14T05:52:07;23.30;38.00
1614;DHT22;800;48.824;9.346;2023-06-14T05:54:33;23.50;37.90
1614;DHT22;800;48.824;9.346;2023-06-14T05:56:59;23.60;37.40
1614;DHT22;800;48.824;9.346;2023-06-14T05:59:27;23.70;37.10
1614;DHT22;800;48.824;9.346;2023-06-14T06:01:53;23.60;37.20
1614;DHT22;800;48.824;9.346;2023-06-14T06:04:18;23.60;37.30
1614;DHT22;800;48.824;9.346;2023-06-14T06:06:45;23.70;37.30
1614;DHT22;800;48.824;9.346;2023-06-14T06:09:12;23.80;37.20
1614;DHT22;800;48.824;9.346;2023-06-14T06:11:39;23.90;36.80
1614;DHT22;800;48.824;9.346;2023-06-14T06:14:05;23.90;36.70
1614;DHT22;800;48.824;9.346;2023-06-14T06:16:31;23.90;36.90
1614;DHT22;800;48.824;9.346;2023-06-14T06:18:56;23.90;37.10
1614;DHT22;800;48.824;9.346;2023-06-14T06:21:22;24.00;37.40
1614;DHT22;800;48.824;9.346;2023-06-14T06:23:47;24.00;37.00
1614;DHT22;800;48.824;9.346;2023-06-14T06:26:13;24.10;37.30
1614;DHT22;800;48.824;9.346;2023-06-14T06:28:39;24.20;37.60
1614;DHT22;800;48.824;9.346;2023-06-14T06:31:04;24.20;37.20
1614;DHT22;800;48.824;9.346;2023-06-14T06:33:30;24.30;37.30
1614;DHT22;800;48.824;9.346;2023-06-14T06:35:56;24.30;37.10
1614;DHT22;800;48.824;9.346;2023-06-14T06:38:21;24.40;37.40
1614;DHT22;800;48.824;9.346;2023-06-14T06:40:47;24.40;37.30
1614;DHT22;800;48.824;9.346;2023-06-14T06:43:12;24.50;37.40
1614;DHT22;800;48.824;9.346;2023-06-14T06:45:42;24.50;36.80
1614;DHT22;800;48.824;9.346;2023-06-14T06:48:08;24.50;37.10
1614;DHT22;800;48.824;9.346;2023-06-14T06:50:35;24.60;36.70
1614;DHT22;800;48.824;9.346;2023-06-14T06:53:01;24.80;36.90
1614;DHT22;800;48.824;9.346;2023-06-14T06:55:26;25.00;36.90
1614;DHT22;800;48.824;9.346;2023-06-14T06:57:52;25.20;36.40
1614;DHT22;800;48.824;9.346;2023-06-14T07:00:20;25.20;36.20
1614;DHT22;800;48.824;9.346;2023-06-14T07:02:46;25.30;36.10
1614;DHT22;800;48.824;9.346;2023-06-14T07:05:11;25.40;35.60
1614;DHT22;800;48.824;9.346;2023-06-14T07:07:37;25.40;35.70
1614;DHT22;800;48.824;9.346;2023-06-14T07:10:04;25.40;35.80
1614;DHT22;800;48.824;9.346;2023-06-14T07:12:31;25.40;36.00
1614;DHT22;800;48.824;9.346;2023-06-14T07:14:59;25.50;35.90
1614;DHT22;800;48.824;9.346;2023-06-14T07:17:25;25.50;34.80
1614;DHT22;800;48.824;9.346;2023-06-14T07:19:50;25.50;35.30
1614;DHT22;800;48.824;9.346;2023-06-14T07:22:16;25.50;35.20
1614;DHT22;800;48.824;9.346;2023-06-14T07:24:43;25.60;35.20
1614;DHT22;800;48.824;9.346;2023-06-14T07:27:09;25.60;35.30
1614;DHT22;800;48.824;9.346;2023-06-14T07:29:34;25.70;35.10
1614;DHT22;800;48.824;9.346;2023-06-14T07:32:00;25.80;34.70
1614;DHT22;800;48.824;9.346;2023-06-14T07:34:25;25.80;34.80
1614;DHT22;800;48.824;9.346;2023-06-14T07:36:51;25.90;35.30
1614;DHT22;800;48.824;9.346;2023-06-14T07:39:17;26.00;35.30
1614;DHT22;800;48.824;9.346;2023-06-14T07:41:42;26.10;35.10
1614;DHT22;800;48.824;9.346;2023-06-14T07:44:08;26.30;35.20
1614;DHT22;800;48.824;9.346;2023-06-14T07:46:33;26.50;34.30
1614;DHT22;800;48.824;9.346;2023-06-14T07:49:00;26.60;34.00
1614;DHT22;800;48.824;9.346;2023-06-14T07:51:25;26.80;33.80
1614;DHT22;800;48.824;9.346;2023-06-14T07:53:51;27.00;33.30
1614;DHT22;800;48.824;9.346;2023-06-14T07:56:17;27.10;33.40
1614;DHT22;800;48.824;9.346;2023-06-14T07:58:42;27.10;33.00
1614;DHT22;800;48.824;9.346;2023-06-14T08:01:08;27.10;34.20
1614;DHT22;800;48.824;9.346;2023-06-14T08:03:34;27.20;33.30
1614;DHT22;800;48.824;9.346;2023-06-14T08:06:00;27.30;33.60
1614;DHT22;800;48.824;9.346;2023-06-14T08:08:26;27.50;32.80
1614;DHT22;800;48.824;9.346;2023-06-14T08:10:52;27.50;32.10
1614;DHT22;800;48.824;9.346;2023-06-14T08:13:17;27.60;32.30
1614;DHT22;800;48.824;9.346;2023-06-14T08:15:43;27.70;33.10
1614;DHT22;800;48.824;9.346;2023-06-14T08:18:09;27.90;33.00
1614;DHT22;800;48.824;9.346;2023-06-14T08:20:35;28.00;31.90
1614;DHT22;800;48.824;9.346;2023-06-14T08:23:02;28.10;32.40
1614;DHT22;800;48.824;9.346;2023-06-14T08:25:29;28.30;31.90
1614;DHT22;800;48.824;9.346;2023-06-14T08:27:55;28.40;31.30
1614;DHT22;800;48.824;9.346;2023-06-14T08:30:21;28.60;31.60
1614;DHT22;800;48.824;9.346;2023-06-14T08:32:47;28.70;31.20
1614;DHT22;800;48.824;9.346;2023-06-14T08:35:13;28.90;31.70
1614;DHT22;800;48.824;9.346;2023-06-14T08:37:42;28.90;30.80
1614;DHT22;800;48.824;9.346;2023-06-14T08:42:45;29.30;29.50
1614;DHT22;800;48.824;9.346;2023-06-14T08:45:11;29.30;29.30
1614;DHT22;800;48.824;9.346;2023-06-14T08:47:37;29.30;30.00
1614;DHT22;800;48.824;9.346;2023-06-14T08:50:03;29.40;29.30
1614;DHT22;800;48.824;9.346;2023-06-14T08:52:32;29.50;30.10
1614;DHT22;800;48.824;9.346;2023-06-14T08:54:59;29.60;30.40
1614;DHT22;800;48.824;9.346;2023-06-14T08:57:26;29.80;30.00
1614;DHT22;800;48.824;9.346;2023-06-14T08:59:56;29.90;30.10
1614;DHT22;800;48.824;9.346;2023-06-14T09:02:22;30.00;29.70
1614;DHT22;800;48.824;9.346;2023-06-14T09:04:48;30.10;28.90
1614;DHT22;800;48.824;9.346;2023-06-14T09:07:15;30.20;29.40
1614;DHT22;800;48.824;9.346;2023-06-14T09:09:41;30.30;29.60
1614;DHT22;800;48.824;9.346;2023-06-14T09:12:10;30.50;29.70
1614;DHT22;800;48.824;9.346;2023-06-14T09:14:38;30.70;29.30
1614;DHT22;800;48.824;9.346;2023-06-14T09:17:05;30.80;28.90
1614;DHT22;800;48.824;9.346;2023-06-14T09:19:31;31.00;28.10
1614;DHT22;800;48.824;9.346;2023-06-14T09:21:56;31.00;27.10
1614;DHT22;800;48.824;9.346;2023-06-14T09:24:24;31.20;27.50
1614;DHT22;800;48.824;9.346;2023-06-14T09:26:51;31.30;27.60
1614;DHT22;800;48.824;9.346;2023-06-14T09:29:18;31.30;27.70
1614;DHT22;800;48.824;9.346;2023-06-14T09:31:46;31.40;27.30
1614;DHT22;800;48.824;9.346;2023-06-14T09:34:12;31.40;26.90
1614;DHT22;800;48.824;9.346;2023-06-14T09:36:39;31.60;26.10
1614;DHT22;800;48.824;9.346;2023-06-14T09:39:05;31.70;26.50
1614;DHT22;800;48.824;9.346;2023-06-14T09:41:36;31.90;27.00
1614;DHT22;800;48.824;9.346;2023-06-14T09:44:03;31.90;25.60
1614;DHT22;800;48.824;9.346;2023-06-14T09:46:30;31.90;24.80
1614;DHT22;800;48.824;9.346;2023-06-14T09:48:56;32.10;24.40
1614;DHT22;800;48.824;9.346;2023-06-14T09:51:23;32.20;25.20
1614;DHT22;800;48.824;9.346;2023-06-14T09:53:49;32.30;25.50
1614;DHT22;800;48.824;9.346;2023-06-14T09:56:29;32.30;23.70
1614;DHT22;800;48.824;9.346;2023-06-14T09:58:57;32.50;24.40
1614;DHT22;800;48.824;9.346;2023-06-14T10:01:24;32.70;24.60
1614;DHT22;800;48.824;9.346;2023-06-14T10:04:02;32.90;25.50
1614;DHT22;800;48.824;9.346;2023-06-14T10:06:29;32.90;24.40
1614;DHT22;800;48.824;9.346;2023-06-14T10:08:58;33.00;24.60
1614;DHT22;800;48.824;9.346;2023-06-14T10:11:28;32.90;24.70
1614;DHT22;800;48.824;9.346;2023-06-14T10:13:55;32.90;24.50
1614;DHT22;800;48.824;9.346;2023-06-14T10:16:27;33.00;24.00
1614;DHT22;800;48.824;9.346;2023-06-14T10:24:38;33.00;24.70
1614;DHT22;800;48.824;9.346;2023-06-14T10:27:07;33.30;23.80
1614;DHT22;800;48.824;9.346;2023-06-14T10:32:21;33.20;22.70
1614;DHT22;800;48.824;9.346;2023-06-14T10:35:00;33.20;23.30
1614;DHT22;800;48.824;9.346;2023-06-14T10:37:27;33.30;23.10
1614;DHT22;800;48.824;9.346;2023-06-14T10:39:52;33.40;22.80
1614;DHT22;800;48.824;9.346;2023-06-14T10:42:21;33.30;23.20
1614;DHT22;800;48.824;9.346;2023-06-14T10:44:52;33.50;23.90
1614;DHT22;800;48.824;9.346;2023-06-14T10:47:34;33.60;23.90
1614;DHT22;800;48.824;9.346;2023-06-14T10:50:08;33.80;23.80
1614;DHT22;800;48.824;9.346;2023-06-14T10:52:39;33.90;23.60
1614;DHT22;800;48.824;9.346;2023-06-14T10:55:16;34.00;22.70
1614;DHT22;800;48.824;9.346;2023-06-14T10:57:47;33.80;22.60
1614;DHT22;800;48.824;9.346;2023-06-14T11:00:14;33.70;23.00
1614;DHT22;800;48.824;9.346;2023-06-14T11:03:11;33.50;22.50
1614;DHT22;800;48.824;9.346;2023-06-14T11:05:48;33.40;23.50
1614;DHT22;800;48.824;9.346;2023-06-14T11:11:12;33.50;23.00
1614;DHT22;800;48.824;9.346;2023-06-14T11:13:41;33.50;22.50
1614;DHT22;800;48.824;9.346;2023-06-14T11:16:11;33.70;22.60
1614;DHT22;800;48.824;9.346;2023-06-14T11:18:37;33.80;22.50
1614;DHT22;800;48.824;9.346;2023-06-14T11:21:03;33.90;23.40
1614;DHT22;800;48.824;9.346;2023-06-14T11:23:28;33.90;23.40
1614;DHT22;800;48.824;9.346;2023-06-14T11:25:54;34.00;23.30
1614;DHT22;800;48.824;9.346;2023-06-14T11:28:20;34.20;24.00
1614;DHT22;800;48.824;9.346;2023-06-14T11:30:47;34.50;23.10
1614;DHT22;800;48.824;9.346;2023-06-14T11:33:17;34.50;21.70
1614;DHT22;800;48.824;9.346;2023-06-14T11:35:44;34.60;21.90
1614;DHT22;800;48.824;9.346;2023-06-14T11:38:11;34.60;21.60
1614;DHT22;800;48.824;9.346;2023-06-14T11:40:38;34.60;21.70
1614;DHT22;800;48.824;9.346;2023-06-14T11:43:03;34.50;20.70
1614;DHT22;800;48.824;9.346;2023-06-14T11:45:30;34.30;21.70
1614;DHT22;800;48.824;9.346;2023-06-14T11:47:57;34.50;21.90
1614;DHT22;800;48.824;9.346;2023-06-14T11:50:23;34.60;21.70
1614;DHT22;800;48.824;9.346;2023-06-14T11:55:21;34.90;21.10
1614;DHT22;800;48.824;9.346;2023-06-14T11:57:47;35.10;20.70
1614;DHT22;800;48.824;9.346;2023-06-14T12:00:13;35.40;20.80
1614;DHT22;800;48.824;9.346;2023-06-14T12:02:41;35.50;20.70
1614;DHT22;800;48.824;9.346;2023-06-14T12:05:07;35.60;21.60
1614;DHT22;800;48.824;9.346;2023-06-14T12:07:36;35.60;22.20
1614;DHT22;800;48.824;9.346;2023-06-14T12:12:37;35.70;21.20
1614;DHT22;800;48.824;9.346;2023-06-14T12:15:04;35.60;21.50
1614;DHT22;800;48.824;9.346;2023-06-14T12:17:35;35.70;21.00
1614;DHT22;800;48.824;9.346;2023-06-14T12:20:09;35.70;20.50
1614;DHT22;800;48.824;9.346;2023-06-14T12:25:25;35.70;21.20
1614;DHT22;800;48.824;9.346;2023-06-14T12:27:53;35.60;21.20
1614;DHT22;800;48.824;9.346;2023-06-14T12:30:19;35.40;20.90
1614;DHT22;800;48.824;9.346;2023-06-14T12:32:45;35.40;21.70
1614;DHT22;800;48.824;9.346;2023-06-14T12:35:11;35.40;21.40
1614;DHT22;800;48.824;9.346;2023-06-14T12:37:36;35.40;22.10
1614;DHT22;800;48.824;9.346;2023-06-14T12:40:02;35.40;21.90
1614;DHT22;800;48.824;9.346;2023-06-14T12:42:32;35.40;22.20
1614;DHT22;800;48.824;9.346;2023-06-14T12:44:59;35.30;22.10
1614;DHT22;800;48.824;9.346;2023-06-14T12:47:25;35.20;22.50
1614;DHT22;800;48.824;9.346;2023-06-14T12:49:50;35.30;22.80
1614;DHT22;800;48.824;9.346;2023-06-14T12:52:16;35.30;22.40
1614;DHT22;800;48.824;9.346;2023-06-14T12:54:42;35.60;22.30
1614;DHT22;800;48.824;9.346;2023-06-14T12:57:08;35.70;22.30
1614;DHT22;800;48.824;9.346;2023-06-14T12:59:33;35.60;22.20
1614;DHT22;800;48.824;9.346;2023-06-14T13:02:13;35.80;21.40
1614;DHT22;800;48.824;9.346;2023-06-14T13:04:38;35.80;20.50
1614;DHT22;800;48.824;9.346;2023-06-14T13:07:04;35.90;21.00
1614;DHT22;800;48.824;9.346;2023-06-14T13:09:30;36.10;21.20
1614;DHT22;800;48.824;9.346;2023-06-14T13:11:56;36.20;21.10
1614;DHT22;800;48.824;9.346;2023-06-14T13:14:22;36.20;21.70
1614;DHT22;800;48.824;9.346;2023-06-14T13:16:48;36.00;21.60
1614;DHT22;800;48.824;9.346;2023-06-14T13:19:13;36.20;21.70
1614;DHT22;800;48.824;9.346;2023-06-14T13:21:39;36.40;21.90
1614;DHT22;800;48.824;9.346;2023-06-14T13:24:05;36.50;20.70
1614;DHT22;800;48.824;9.346;2023-06-14T13:26:30;36.70;21.10
1614;DHT22;800;48.824;9.346;2023-06-14T13:28:56;36.70;21.00
1614;DHT22;800;48.824;9.346;2023-06-14T13:31:22;36.80;20.10
1614;DHT22;800;48.824;9.346;2023-06-14T13:33:47;36.90;21.10
1614;DHT22;800;48.824;9.346;2023-06-14T13:36:13;36.80;20.60
1614;DHT22;800;48.824;9.346;2023-06-14T13:38:38;36.90;20.20
1614;DHT22;800;48.824;9.346;2023-06-14T13:41:04;37.00;19.90
1614;DHT22;800;48.824;9.346;2023-06-14T13:43:30;36.90;20.80
1614;DHT22;800;48.824;9.346;2023-06-14T13:45:56;37.00;21.20
1614;DHT22;800;48.824;9.346;2023-06-14T13:48:21;37.10;20.70
1614;DHT22;800;48.824;9.346;2023-06-14T13:50:47;37.20;19.90
1614;DHT22;800;48.824;9.346;2023-06-14T13:53:13;37.30;20.20
1614;DHT22;800;48.824;9.346;2023-06-14T13:55:39;37.10;20.50
1614;DHT22;800;48.824;9.346;2023-06-14T13:58:05;37.10;20.10
1614;DHT22;800;48.824;9.346;2023-06-14T14:00:30;37.10;20.20
1614;DHT22;800;48.824;9.346;2023-06-14T14:02:56;37.20;19.90
1614;DHT22;800;48.824;9.346;2023-06-14T14:05:22;37.30;19.90
1614;DHT22;800;48.824;9.346;2023-06-14T14:07:53;37.30;19.80
1614;DHT22;800;48.824;9.346;2023-06-14T14:10:20;37.40;20.20
1614;DHT22;800;48.824;9.346;2023-06-14T14:12:45;37.40;20.30
1614;DHT22;800;48.824;9.346;2023-06-14T14:15:11;37.30;20.60
1614;DHT22;800;48.824;9.346;2023-06-14T14:17:38;37.30;20.90
1614;DHT22;800;48.824;9.346;2023-06-14T14:20:04;37.00;21.10
1614;DHT22;800;48.824;9.346;2023-06-14T14:22:30;37.00;20.70
1614;DHT22;800;48.824;9.346;2023-06-14T14:24:55;37.00;20.90
1614;DHT22;800;48.824;9.346;2023-06-14T14:27:21;36.90;20.90
1614;DHT22;800;48.824;9.346;2023-06-14T14:29:46;36.70;21.30
1614;DHT22;800;48.824;9.346;2023-06-14T14:32:12;36.50;21.20
1614;DHT22;800;48.824;9.346;2023-06-14T14:34:39;36.30;21.10
1614;DHT22;800;48.824;9.346;2023-06-14T14:37:05;36.20;21.40
1614;DHT22;800;48.824;9.346;2023-06-14T14:39:31;36.10;21.20
1614;DHT22;800;48.824;9.346;2023-06-14T14:41:56;35.90;21.20
1614;DHT22;800;48.824;9.346;2023-06-14T14:44:22;35.80;21.40
1614;DHT22;800;48.824;9.346;2023-06-14T14:46:47;35.80;21.30
1614;DHT22;800;48.824;9.346;2023-06-14T14:49:13;35.70;20.90
1614;DHT22;800;48.824;9.346;2023-06-14T14:51:39;35.60;21.40
1614;DHT22;800;48.824;9.346;2023-06-14T14:54:05;35.50;21.30
1614;DHT22;800;48.824;9.346;2023-06-14T14:56:31;35.40;21.50
1614;DHT22;800;48.824;9.346;2023-06-14T14:58:57;35.20;21.70
1614;DHT22;800;48.824;9.346;2023-06-14T15:01:22;35.20;21.60
1614;DHT22;800;48.824;9.346;2023-06-14T15:03:48;35.10;22.00
1614;DHT22;800;48.824;9.346;2023-06-14T15:06:14;35.20;21.90
1614;DHT22;800;48.824;9.346;2023-06-14T15:08:39;35.20;21.20
1614;DHT22;800;48.824;9.346;2023-06-14T15:11:05;35.20;21.40
1614;DHT22;800;48.824;9.346;2023-06-14T15:13:32;35.20;21.60
1614;DHT22;800;48.824;9.346;2023-06-14T15:15:57;35.10;22.30
1614;DHT22;800;48.824;9.346;2023-06-14T15:18:23;35.20;22.10
1614;DHT22;800;48.824;9.346;2023-06-14T15:20:49;35.30;22.00
1614;DHT22;800;48.824;9.346;2023-06-14T15:23:15;35.50;22.40
1614;DHT22;800;48.824;9.346;2023-06-14T15:25:45;35.50;21.70
1614;DHT22;800;48.824;9.346;2023-06-14T15:28:12;35.50;22.30
1614;DHT22;800;48.824;9.346;2023-06-14T15:30:37;35.40;21.90
1614;DHT22;800;48.824;9.346;2023-06-14T15:33:03;35.40;21.90
1614;DHT22;800;48.824;9.346;2023-06-14T15:35:29;35.30;21.90
1614;DHT22;800;48.824;9.346;2023-06-14T15:37:54;35.30;22.40
1614;DHT22;800;48.824;9.346;2023-06-14T15:40:20;35.40;21.10
1614;DHT22;800;48.824;9.346;2023-06-14T15:42:46;35.10;21.40
1614;DHT22;800;48.824;9.346;2023-06-14T15:45:11;35.10;21.40
1614;DHT22;800;48.824;9.346;2023-06-14T15:47:37;35.20;21.30
1614;DHT22;800;48.824;9.346;2023-06-14T15:50:03;35.20;22.10
1614;DHT22;800;48.824;9.346;2023-06-14T15:52:30;35.20;22.10
1614;DHT22;800;48.824;9.346;2023-06-14T15:54:56;35.20;21.80
1614;DHT22;800;48.824;9.346;2023-06-14T15:57:21;35.20;21.70
1614;DHT22;800;48.824;9.346;2023-06-14T15:59:47;35.10;21.80
1614;DHT22;800;48.824;9.346;2023-06-14T16:02:12;35.10;21.40
1614;DHT22;800;48.824;9.346;2023-06-14T16:04:39;35.10;21.70
1614;DHT22;800;48.824;9.346;2023-06-14T16:07:04;35.10;21.90
1614;DHT22;800;48.824;9.346;2023-06-14T16:09:30;35.10;21.80
1614;DHT22;800;48.824;9.346;2023-06-14T16:11:55;35.10;22.20
1614;DHT22;800;48.824;9.346;2023-06-14T16:14:22;35.00;22.20
1614;DHT22;800;48.824;9.346;2023-06-14T16:16:47;34.90;22.20
1614;DHT22;800;48.824;9.346;2023-06-14T16:19:13;34.90;22.50
1614;DHT22;800;48.824;9.346;2023-06-14T16:21:39;34.90;22.20
1614;DHT22;800;48.824;9.346;2023-06-14T16:24:05;34.90;22.10
1614;DHT22;800;48.824;9.346;2023-06-14T16:26:31;34.70;22.20
1614;DHT22;800;48.824;9.346;2023-06-14T16:28:56;34.70;22.40
1614;DHT22;800;48.824;9.346;2023-06-14T16:31:22;34.80;22.20
1614;DHT22;800;48.824;9.346;2023-06-14T16:33:48;34.90;21.80
1614;DHT22;800;48.824;9.346;2023-06-14T16:36:22;34.90;22.10
1614;DHT22;800;48.824;9.346;2023-06-14T16:38:49;34.90;22.10
1614;DHT22;800;48.824;9.346;2023-06-14T16:41:15;34.80;22.30
1614;DHT22;800;48.824;9.346;2023-06-14T16:43:41;34.80;22.30